sensor_id;sensor_type;location;lat;lon;timestamp;P1;durP1;ratioP1;P2;durP2;ratioP2
30553;SDS011;17335;50.720;7.452;2023-04-19T00:01:14;9.40;;;4.90;;
30553;SDS011;17335;50.720;7.452;2023-04-19T00:03:41;9.02;;;4.90;;
30553;SDS011;17335;50.720;7.452;2023-04-19T00:06:08;13.48;;;4.90;;
30553;SDS011;17335;50.720;7.452;2023-04-19T00:08:35;9.35;;;4.78;;
30553;SDS011;17335;50.720;7.452;2023-04-19T00:11:02;10.75;;;5.22;;
30553;SDS011;17335;50.720;7.452;2023-04-19T00:13:28;12.20;;;4.78;;
30553;SDS011;17335;50.720;7.452;2023-04-19T00:15:55;9.90;;;5.18;;
30553;SDS011;17335;50.720;7.452;2023-04-19T00:18:22;9.77;;;5.07;;
30553;SDS011;17335;50.720;7.452;2023-04-19T00:20:48;11.90;;;5.38;;
30553;SDS011;17335;50.720;7.452;2023-04-19T00:23:15;11.13;;;5.57;;
30553;SDS011;17335;50.720;7.452;2023-04-19T00:25:41;11.77;;;5.50;;
30553;SDS011;17335;50.720;7.452;2023-04-19T00:28:08;13.63;;;6.07;;
30553;SDS011;17335;50.720;7.452;2023-04-19T00:30:35;12.73;;;6.03;;
30553;SDS011;17335;50.720;7.452;2023-04-19T00:33:01;11.73;;;6.38;;
30553;SDS011;17335;50.720;7.452;2023-04-19T00:35:28;12.60;;;6.35;;
30553;SDS011;17335;50.720;7.452;2023-04-19T00:37:55;11.63;;;6.18;;
30553;SDS011;17335;50.720;7.452;2023-04-19T00:40:22;16.27;;;7.38;;
30553;SDS011;17335;50.720;7.452;2023-04-19T00:42:48;13.18;;;6.45;;
30553;SDS011;17335;50.720;7.452;2023-04-19T00:45:15;13.60;;;6.43;;
30553;SDS011;17335;50.720;7.452;2023-04-19T00:47:42;14.13;;;6.72;;
30553;SDS011;17335;50.720;7.452;2023-04-19T00:50:09;15.43;;;6.47;;
30553;SDS011;17335;50.720;7.452;2023-04-19T00:52:36;13.85;;;6.07;;
30553;SDS011;17335;50.720;7.452;2023-04-19T00:55:03;13.77;;;6.70;;
30553;SDS011;17335;50.720;7.452;2023-04-19T00:57:30;15.68;;;6.18;;
30553;SDS011;17335;50.720;7.452;2023-04-19T00:59:56;12.13;;;6.13;;
30553;SDS011;17335;50.720;7.452;2023-04-19T01:02:24;13.27;;;6.63;;
30553;SDS011;17335;50.720;7.452;2023-04-19T01:04:51;14.02;;;6.47;;
30553;SDS011;17335;50.720;7.452;2023-04-19T01:07:17;10.23;;;5.90;;
30553;SDS011;17335;50.720;7.452;2023-04-19T01:09:46;13.05;;;6.60;;
30553;SDS011;17335;50.720;7.452;2023-04-19T01:12:12;13.05;;;6.60;;
30553;SDS011;17335;50.720;7.452;2023-04-19T01:14:39;13.55;;;6.43;;
30553;SDS011;17335;50.720;7.452;2023-04-19T01:17:06;11.85;;;6.40;;
30553;SDS011;17335;50.720;7.452;2023-04-19T01:19:33;12.88;;;6.50;;
30553;SDS011;17335;50.720;7.452;2023-04-19T01:22:01;9.20;;;5.78;;
30553;SDS011;17335;50.720;7.452;2023-04-19T01:24:29;13.90;;;5.70;;
30553;SDS011;17335;50.720;7.452;2023-04-19T01:26:56;9.95;;;5.32;;
30553;SDS011;17335;50.720;7.452;2023-04-19T01:29:22;13.18;;;6.25;;
30553;SDS011;17335;50.720;7.452;2023-04-19T01:31:49;10.77;;;5.82;;
30553;SDS011;17335;50.720;7.452;2023-04-19T01:34:19;11.55;;;5.85;;
30553;SDS011;17335;50.720;7.452;2023-04-19T01:36:45;12.18;;;5.72;;
30553;SDS011;17335;50.720;7.452;2023-04-19T01:39:12;16.30;;;6.70;;
30553;SDS011;17335;50.720;7.452;2023-04-19T01:41:38;12.18;;;6.75;;
30553;SDS011;17335;50.720;7.452;2023-04-19T01:44:05;13.93;;;7.15;;
30553;SDS011;17335;50.720;7.452;2023-04-19T01:46:32;12.35;;;6.47;;
30553;SDS011;17335;50.720;7.452;2023-04-19T01:48:58;11.18;;;6.15;;
30553;SDS011;17335;50.720;7.452;2023-04-19T01:51:25;10.05;;;6.05;;
30553;SDS011;17335;50.720;7.452;2023-04-19T01:53:51;12.23;;;6.13;;
30553;SDS011;17335;50.720;7.452;2023-04-19T01:56:20;11.23;;;6.35;;
30553;SDS011;17335;50.720;7.452;2023-04-19T01:58:49;10.13;;;5.75;;
30553;SDS011;17335;50.720;7.452;2023-04-19T02:01:16;11.70;;;6.15;;
30553;SDS011;17335;50.720;7.452;2023-04-19T02:03:43;13.00;;;5.95;;
30553;SDS011;17335;50.720;7.452;2023-04-19T02:06:10;11.45;;;6.53;;
30553;SDS011;17335;50.720;7.452;2023-04-19T02:08:40;13.68;;;7.13;;
30553;SDS011;17335;50.720;7.452;2023-04-19T02:11:08;13.00;;;6.03;;
30553;SDS011;17335;50.720;7.452;2023-04-19T02:13:36;12.90;;;6.38;;
30553;SDS011;17335;50.720;7.452;2023-04-19T02:16:03;11.30;;;6.50;;
30553;SDS011;17335;50.720;7.452;2023-04-19T02:18:31;11.85;;;6.57;;
30553;SDS011;17335;50.720;7.452;2023-04-19T02:20:59;13.15;;;6.80;;
30553;SDS011;17335;50.720;7.452;2023-04-19T02:23:25;13.18;;;6.28;;
30553;SDS011;17335;50.720;7.452;2023-04-19T02:25:52;14.27;;;6.90;;
30553;SDS011;17335;50.720;7.452;2023-04-19T02:28:19;13.75;;;7.38;;
30553;SDS011;17335;50.720;7.452;2023-04-19T02:30:46;11.85;;;6.15;;
30553;SDS011;17335;50.720;7.452;2023-04-19T02:33:13;14.27;;;6.85;;
30553;SDS011;17335;50.720;7.452;2023-04-19T02:35:40;10.07;;;6.13;;
30553;SDS011;17335;50.720;7.452;2023-04-19T02:38:07;11.50;;;6.32;;
30553;SDS011;17335;50.720;7.452;2023-04-19T02:40:33;11.98;;;6.97;;
30553;SDS011;17335;50.720;7.452;2023-04-19T02:43:00;12.20;;;6.57;;
30553;SDS011;17335;50.720;7.452;2023-04-19T02:45:27;14.02;;;6.78;;
30553;SDS011;17335;50.720;7.452;2023-04-19T02:47:53;14.75;;;7.68;;
30553;SDS011;17335;50.720;7.452;2023-04-19T02:50:20;16.63;;;7.18;;
30553;SDS011;17335;50.720;7.452;2023-04-19T02:52:47;15.10;;;6.95;;
30553;SDS011;17335;50.720;7.452;2023-04-19T02:55:13;15.70;;;6.68;;
30553;SDS011;17335;50.720;7.452;2023-04-19T02:57:40;15.85;;;7.43;;
30553;SDS011;17335;50.720;7.452;2023-04-19T03:00:06;16.23;;;7.82;;
30553;SDS011;17335;50.720;7.452;2023-04-19T03:02:34;14.73;;;7.25;;
30553;SDS011;17335;50.720;7.452;2023-04-19T03:05:01;13.50;;;7.43;;
30553;SDS011;17335;50.720;7.452;2023-04-19T03:07:27;19.00;;;8.23;;
30553;SDS011;17335;50.720;7.452;2023-04-19T03:09:54;15.27;;;7.50;;
30553;SDS011;17335;50.720;7.452;2023-04-19T03:12:21;17.95;;;8.40;;
30553;SDS011;17335;50.720;7.452;2023-04-19T03:14:47;15.75;;;8.13;;
30553;SDS011;17335;50.720;7.452;2023-04-19T03:17:14;16.33;;;7.70;;
30553;SDS011;17335;50.720;7.452;2023-04-19T03:19:41;18.35;;;7.45;;
30553;SDS011;17335;50.720;7.452;2023-04-19T03:22:08;15.40;;;8.05;;
30553;SDS011;17335;50.720;7.452;2023-04-19T03:24:34;16.83;;;8.00;;
30553;SDS011;17335;50.720;7.452;2023-04-19T03:27:03;13.55;;;7.50;;
30553;SDS011;17335;50.720;7.452;2023-04-19T03:29:29;14.68;;;7.50;;
30553;SDS011;17335;50.720;7.452;2023-04-19T03:31:56;14.98;;;7.70;;
30553;SDS011;17335;50.720;7.452;2023-04-19T03:34:23;14.07;;;7.28;;
30553;SDS011;17335;50.720;7.452;2023-04-19T03:36:50;15.45;;;7.50;;
30553;SDS011;17335;50.720;7.452;2023-04-19T03:39:17;13.45;;;7.20;;
30553;SDS011;17335;50.720;7.452;2023-04-19T03:41:43;14.30;;;7.00;;
30553;SDS011;17335;50.720;7.452;2023-04-19T03:44:10;17.48;;;7.40;;
30553;SDS011;17335;50.720;7.452;2023-04-19T03:46:36;13.98;;;7.05;;
30553;SDS011;17335;50.720;7.452;2023-04-19T03:49:03;12.35;;;7.03;;
30553;SDS011;17335;50.720;7.452;2023-04-19T03:51:30;13.80;;;7.25;;
30553;SDS011;17335;50.720;7.452;2023-04-19T03:53:57;13.90;;;7.32;;
30553;SDS011;17335;50.720;7.452;2023-04-19T03:56:23;13.68;;;7.43;;
30553;SDS011;17335;50.720;7.452;2023-04-19T03:58:51;16.73;;;7.82;;
30553;SDS011;17335;50.720;7.452;2023-04-19T04:01:20;14.27;;;6.85;;
30553;SDS011;17335;50.720;7.452;2023-04-19T04:03:47;14.50;;;7.70;;
30553;SDS011;17335;50.720;7.452;2023-04-19T04:06:15;13.55;;;7.13;;
30553;SDS011;17335;50.720;7.452;2023-04-19T04:08:41;14.02;;;7.55;;
30553;SDS011;17335;50.720;7.452;2023-04-19T04:11:08;12.43;;;6.90;;
30553;SDS011;17335;50.720;7.452;2023-04-19T04:13:34;14.65;;;7.22;;
30553;SDS011;17335;50.720;7.452;2023-04-19T04:16:01;13.30;;;7.20;;
30553;SDS011;17335;50.720;7.452;2023-04-19T04:18:29;15.30;;;7.75;;
30553;SDS011;17335;50.720;7.452;2023-04-19T04:20:56;18.70;;;8.38;;
30553;SDS011;17335;50.720;7.452;2023-04-19T04:23:23;15.10;;;8.32;;
30553;SDS011;17335;50.720;7.452;2023-04-19T04:25:55;15.38;;;8.30;;
30553;SDS011;17335;50.720;7.452;2023-04-19T04:28:28;16.23;;;8.48;;
30553;SDS011;17335;50.720;7.452;2023-04-19T04:30:55;14.95;;;8.18;;
30553;SDS011;17335;50.720;7.452;2023-04-19T04:33:25;16.67;;;8.35;;
30553;SDS011;17335;50.720;7.452;2023-04-19T04:35:55;15.80;;;7.90;;
30553;SDS011;17335;50.720;7.452;2023-04-19T04:38:22;16.33;;;8.25;;
30553;SDS011;17335;50.720;7.452;2023-04-19T04:40:55;14.30;;;8.02;;
30553;SDS011;17335;50.720;7.452;2023-04-19T04:43:23;19.27;;;9.32;;
30553;SDS011;17335;50.720;7.452;2023-04-19T04:45:52;17.00;;;8.20;;
30553;SDS011;17335;50.720;7.452;2023-04-19T04:48:22;16.15;;;8.38;;
30553;SDS011;17335;50.720;7.452;2023-04-19T04:50:48;16.15;;;8.30;;
30553;SDS011;17335;50.720;7.452;2023-04-19T04:53:15;16.85;;;9.43;;
30553;SDS011;17335;50.720;7.452;2023-04-19T04:55:42;18.45;;;8.68;;
30553;SDS011;17335;50.720;7.452;2023-04-19T04:58:09;17.42;;;9.00;;
30553;SDS011;17335;50.720;7.452;2023-04-19T05:00:35;17.05;;;8.95;;
30553;SDS011;17335;50.720;7.452;2023-04-19T05:03:02;19.15;;;9.40;;
30553;SDS011;17335;50.720;7.452;2023-04-19T05:05:29;16.92;;;9.27;;
30553;SDS011;17335;50.720;7.452;2023-04-19T05:07:56;17.50;;;10.23;;
30553;SDS011;17335;50.720;7.452;2023-04-19T05:10:23;17.60;;;8.73;;
30553;SDS011;17335;50.720;7.452;2023-04-19T05:12:49;28.67;;;11.00;;
30553;SDS011;17335;50.720;7.452;2023-04-19T05:15:16;16.42;;;8.95;;
30553;SDS011;17335;50.720;7.452;2023-04-19T05:17:42;17.27;;;9.13;;
30553;SDS011;17335;50.720;7.452;2023-04-19T05:20:09;19.13;;;9.40;;
30553;SDS011;17335;50.720;7.452;2023-04-19T05:22:36;19.95;;;9.07;;
30553;SDS011;17335;50.720;7.452;2023-04-19T05:25:03;17.27;;;8.43;;
30553;SDS011;17335;50.720;7.452;2023-04-19T05:27:30;16.42;;;8.65;;
30553;SDS011;17335;50.720;7.452;2023-04-19T05:29:56;15.57;;;8.57;;
30553;SDS011;17335;50.720;7.452;2023-04-19T05:32:23;18.17;;;9.00;;
30553;SDS011;17335;50.720;7.452;2023-04-19T05:34:50;18.75;;;9.43;;
30553;SDS011;17335;50.720;7.452;2023-04-19T05:37:16;20.38;;;9.20;;
30553;SDS011;17335;50.720;7.452;2023-04-19T05:39:43;16.17;;;8.27;;
30553;SDS011;17335;50.720;7.452;2023-04-19T05:42:10;15.45;;;7.80;;
30553;SDS011;17335;50.720;7.452;2023-04-19T05:44:37;15.13;;;8.07;;
30553;SDS011;17335;50.720;7.452;2023-04-19T05:47:03;17.08;;;9.02;;
30553;SDS011;17335;50.720;7.452;2023-04-19T05:49:30;15.70;;;8.48;;
30553;SDS011;17335;50.720;7.452;2023-04-19T05:51:57;21.67;;;10.93;;
30553;SDS011;17335;50.720;7.452;2023-04-19T05:54:23;16.08;;;8.63;;
30553;SDS011;17335;50.720;7.452;2023-04-19T05:56:50;16.15;;;7.78;;
30553;SDS011;17335;50.720;7.452;2023-04-19T05:59:16;15.25;;;8.48;;
30553;SDS011;17335;50.720;7.452;2023-04-19T06:01:43;15.57;;;9.23;;
30553;SDS011;17335;50.720;7.452;2023-04-19T06:04:10;18.23;;;9.00;;
30553;SDS011;17335;50.720;7.452;2023-04-19T06:06:37;20.08;;;9.48;;
30553;SDS011;17335;50.720;7.452;2023-04-19T06:09:03;19.52;;;10.30;;
30553;SDS011;17335;50.720;7.452;2023-04-19T06:11:30;19.52;;;10.15;;
30553;SDS011;17335;50.720;7.452;2023-04-19T06:14:09;19.98;;;9.98;;
30553;SDS011;17335;50.720;7.452;2023-04-19T06:16:36;17.85;;;8.68;;
30553;SDS011;17335;50.720;7.452;2023-04-19T06:19:02;13.88;;;7.43;;
30553;SDS011;17335;50.720;7.452;2023-04-19T06:21:29;16.42;;;9.57;;
30553;SDS011;17335;50.720;7.452;2023-04-19T06:23:56;17.02;;;8.90;;
30553;SDS011;17335;50.720;7.452;2023-04-19T06:26:24;16.98;;;8.55;;
30553;SDS011;17335;50.720;7.452;2023-04-19T06:28:51;13.88;;;7.68;;
30553;SDS011;17335;50.720;7.452;2023-04-19T06:31:18;14.82;;;8.43;;
30553;SDS011;17335;50.720;7.452;2023-04-19T06:33:45;15.43;;;7.20;;
30553;SDS011;17335;50.720;7.452;2023-04-19T06:36:12;14.88;;;7.55;;
30553;SDS011;17335;50.720;7.452;2023-04-19T06:38:38;13.50;;;7.03;;
30553;SDS011;17335;50.720;7.452;2023-04-19T06:41:06;13.13;;;7.22;;
30553;SDS011;17335;50.720;7.452;2023-04-19T06:43:34;15.77;;;7.63;;
30553;SDS011;17335;50.720;7.452;2023-04-19T06:46:01;14.05;;;7.05;;
30553;SDS011;17335;50.720;7.452;2023-04-19T06:48:29;14.02;;;7.50;;
30553;SDS011;17335;50.720;7.452;2023-04-19T06:50:56;13.77;;;6.85;;
30553;SDS011;17335;50.720;7.452;2023-04-19T06:53:23;13.40;;;7.15;;
30553;SDS011;17335;50.720;7.452;2023-04-19T06:55:56;14.45;;;7.53;;
30553;SDS011;17335;50.720;7.452;2023-04-19T06:58:27;13.88;;;7.43;;
30553;SDS011;17335;50.720;7.452;2023-04-19T07:00:53;14.85;;;7.40;;
30553;SDS011;17335;50.720;7.452;2023-04-19T07:03:20;12.82;;;7.18;;
30553;SDS011;17335;50.720;7.452;2023-04-19T07:05:48;12.27;;;7.13;;
30553;SDS011;17335;50.720;7.452;2023-04-19T07:08:15;11.68;;;6.75;;
30553;SDS011;17335;50.720;7.452;2023-04-19T07:10:41;19.67;;;7.95;;
30553;SDS011;17335;50.720;7.452;2023-04-19T07:13:09;13.90;;;7.32;;
30553;SDS011;17335;50.720;7.452;2023-04-19T07:15:38;11.27;;;6.50;;
30553;SDS011;17335;50.720;7.452;2023-04-19T07:18:04;11.80;;;6.63;;
30553;SDS011;17335;50.720;7.452;2023-04-19T07:20:31;10.57;;;5.85;;
30553;SDS011;17335;50.720;7.452;2023-04-19T07:22:58;12.40;;;6.63;;
30553;SDS011;17335;50.720;7.452;2023-04-19T07:25:25;13.98;;;7.07;;
30553;SDS011;17335;50.720;7.452;2023-04-19T07:27:52;13.27;;;6.30;;
30553;SDS011;17335;50.720;7.452;2023-04-19T07:30:21;11.93;;;5.68;;
30553;SDS011;17335;50.720;7.452;2023-04-19T07:32:47;14.07;;;5.85;;
30553;SDS011;17335;50.720;7.452;2023-04-19T07:35:16;12.32;;;6.63;;
30553;SDS011;17335;50.720;7.452;2023-04-19T07:37:44;11.18;;;6.00;;
30553;SDS011;17335;50.720;7.452;2023-04-19T07:40:11;12.25;;;6.57;;
30553;SDS011;17335;50.720;7.452;2023-04-19T07:42:38;12.82;;;6.38;;
30553;SDS011;17335;50.720;7.452;2023-04-19T07:45:05;9.73;;;5.85;;
30553;SDS011;17335;50.720;7.452;2023-04-19T07:47:32;12.63;;;6.30;;
30553;SDS011;17335;50.720;7.452;2023-04-19T07:49:58;9.82;;;5.57;;
30553;SDS011;17335;50.720;7.452;2023-04-19T07:52:25;11.73;;;5.55;;
30553;SDS011;17335;50.720;7.452;2023-04-19T07:54:52;9.95;;;5.60;;
30553;SDS011;17335;50.720;7.452;2023-04-19T07:57:18;11.48;;;6.07;;
30553;SDS011;17335;50.720;7.452;2023-04-19T07:59:45;12.52;;;5.68;;
30553;SDS011;17335;50.720;7.452;2023-04-19T08:02:11;12.55;;;6.22;;
30553;SDS011;17335;50.720;7.452;2023-04-19T08:04:38;18.45;;;10.13;;
30553;SDS011;17335;50.720;7.452;2023-04-19T08:07:06;10.00;;;5.25;;
30553;SDS011;17335;50.720;7.452;2023-04-19T08:09:34;16.20;;;6.50;;
30553;SDS011;17335;50.720;7.452;2023-04-19T08:12:03;11.45;;;5.25;;
30553;SDS011;17335;50.720;7.452;2023-04-19T08:14:29;10.55;;;5.55;;
30553;SDS011;17335;50.720;7.452;2023-04-19T08:17:06;11.00;;;4.95;;
30553;SDS011;17335;50.720;7.452;2023-04-19T08:19:51;8.40;;;4.93;;
30553;SDS011;17335;50.720;7.452;2023-04-19T08:22:18;10.30;;;5.50;;
30553;SDS011;17335;50.720;7.452;2023-04-19T08:24:48;10.68;;;5.47;;
30553;SDS011;17335;50.720;7.452;2023-04-19T08:27:15;9.80;;;4.97;;
30553;SDS011;17335;50.720;7.452;2023-04-19T08:29:42;9.77;;;5.10;;
30553;SDS011;17335;50.720;7.452;2023-04-19T08:32:10;9.52;;;5.10;;
30553;SDS011;17335;50.720;7.452;2023-04-19T08:34:38;10.32;;;5.60;;
30553;SDS011;17335;50.720;7.452;2023-04-19T08:37:05;10.48;;;5.43;;
30553;SDS011;17335;50.720;7.452;2023-04-19T08:39:33;10.40;;;5.47;;
30553;SDS011;17335;50.720;7.452;2023-04-19T08:42:04;10.35;;;5.35;;
30553;SDS011;17335;50.720;7.452;2023-04-19T08:44:49;11.20;;;5.50;;
30553;SDS011;17335;50.720;7.452;2023-04-19T08:47:36;9.90;;;5.13;;
30553;SDS011;17335;50.720;7.452;2023-04-19T08:52:59;11.05;;;5.07;;
30553;SDS011;17335;50.720;7.452;2023-04-19T08:55:47;10.18;;;5.30;;
30553;SDS011;17335;50.720;7.452;2023-04-19T08:58:33;10.85;;;4.93;;
30553;SDS011;17335;50.720;7.452;2023-04-19T09:01:20;9.15;;;5.35;;
30553;SDS011;17335;50.720;7.452;2023-04-19T09:04:02;10.25;;;5.03;;
30553;SDS011;17335;50.720;7.452;2023-04-19T09:06:50;13.70;;;5.20;;
30553;SDS011;17335;50.720;7.452;2023-04-19T09:09:21;10.55;;;5.63;;
30553;SDS011;17335;50.720;7.452;2023-04-19T09:11:52;10.65;;;4.90;;
30553;SDS011;17335;50.720;7.452;2023-04-19T09:14:19;8.10;;;4.53;;
30553;SDS011;17335;50.720;7.452;2023-04-19T09:16:47;10.55;;;5.15;;
30553;SDS011;17335;50.720;7.452;2023-04-19T09:19:14;8.70;;;4.90;;
30553;SDS011;17335;50.720;7.452;2023-04-19T09:21:50;9.27;;;4.53;;
30553;SDS011;17335;50.720;7.452;2023-04-19T09:24:18;8.20;;;4.20;;
30553;SDS011;17335;50.720;7.452;2023-04-19T09:27:29;10.02;;;4.43;;
30553;SDS011;17335;50.720;7.452;2023-04-19T09:29:58;8.73;;;4.53;;
30553;SDS011;17335;50.720;7.452;2023-04-19T09:32:26;9.63;;;4.63;;
30553;SDS011;17335;50.720;7.452;2023-04-19T09:34:57;8.43;;;4.10;;
30553;SDS011;17335;50.720;7.452;2023-04-19T09:37:25;6.60;;;3.53;;
30553;SDS011;17335;50.720;7.452;2023-04-19T09:39:55;9.13;;;3.97;;
30553;SDS011;17335;50.720;7.452;2023-04-19T09:42:22;7.65;;;4.00;;
30553;SDS011;17335;50.720;7.452;2023-04-19T09:45:08;6.30;;;3.40;;
30553;SDS011;17335;50.720;7.452;2023-04-19T09:47:38;9.40;;;3.95;;
30553;SDS011;17335;50.720;7.452;2023-04-19T09:50:06;7.63;;;3.88;;
30553;SDS011;17335;50.720;7.452;2023-04-19T09:52:49;6.50;;;3.40;;
30553;SDS011;17335;50.720;7.452;2023-04-19T09:55:18;7.72;;;3.50;;
30553;SDS011;17335;50.720;7.452;2023-04-19T09:57:48;7.05;;;3.05;;
30553;SDS011;17335;50.720;7.452;2023-04-19T10:00:15;11.80;;;4.20;;
30553;SDS011;17335;50.720;7.452;2023-04-19T10:02:42;7.07;;;3.40;;
30553;SDS011;17335;50.720;7.452;2023-04-19T10:05:10;6.82;;;3.50;;
30553;SDS011;17335;50.720;7.452;2023-04-19T10:07:47;6.15;;;3.20;;
30553;SDS011;17335;50.720;7.452;2023-04-19T10:10:17;7.75;;;3.80;;
30553;SDS011;17335;50.720;7.452;2023-04-19T10:13:12;5.90;;;3.15;;
30553;SDS011;17335;50.720;7.452;2023-04-19T10:15:48;10.48;;;3.38;;
30553;SDS011;17335;50.720;7.452;2023-04-19T10:18:24;7.05;;;3.35;;
30553;SDS011;17335;50.720;7.452;2023-04-19T10:20:54;7.60;;;3.58;;
30553;SDS011;17335;50.720;7.452;2023-04-19T10:23:27;8.35;;;3.88;;
30553;SDS011;17335;50.720;7.452;2023-04-19T10:25:58;10.05;;;2.85;;
30553;SDS011;17335;50.720;7.452;2023-04-19T10:28:28;5.32;;;2.72;;
30553;SDS011;17335;50.720;7.452;2023-04-19T10:30:58;5.57;;;2.65;;
30553;SDS011;17335;50.720;7.452;2023-04-19T10:33:29;4.18;;;2.30;;
30553;SDS011;17335;50.720;7.452;2023-04-19T10:36:00;5.78;;;3.00;;
30553;SDS011;17335;50.720;7.452;2023-04-19T10:38:48;6.07;;;3.17;;
30553;SDS011;17335;50.720;7.452;2023-04-19T10:41:17;6.32;;;3.15;;
30553;SDS011;17335;50.720;7.452;2023-04-19T10:43:46;6.75;;;3.25;;
30553;SDS011;17335;50.720;7.452;2023-04-19T10:48:50;6.30;;;3.15;;
30553;SDS011;17335;50.720;7.452;2023-04-19T10:51:21;5.13;;;2.70;;
30553;SDS011;17335;50.720;7.452;2023-04-19T10:57:09;6.50;;;2.95;;
30553;SDS011;17335;50.720;7.452;2023-04-19T10:59:37;4.97;;;2.65;;
30553;SDS011;17335;50.720;7.452;2023-04-19T11:07:14;3.42;;;2.00;;
30553;SDS011;17335;50.720;7.452;2023-04-19T11:09:43;4.47;;;2.50;;
30553;SDS011;17335;50.720;7.452;2023-04-19T11:12:11;4.80;;;2.47;;
30553;SDS011;17335;50.720;7.452;2023-04-19T11:14:46;4.03;;;2.20;;
30553;SDS011;17335;50.720;7.452;2023-04-19T11:20:05;5.20;;;2.42;;
30553;SDS011;17335;50.720;7.452;2023-04-19T11:25:05;8.27;;;2.55;;
30553;SDS011;17335;50.720;7.452;2023-04-19T11:27:32;4.63;;;2.20;;
30553;SDS011;17335;50.720;7.452;2023-04-19T11:30:03;4.40;;;2.38;;
30553;SDS011;17335;50.720;7.452;2023-04-19T11:32:31;7.88;;;2.38;;
30553;SDS011;17335;50.720;7.452;2023-04-19T11:35:02;5.70;;;2.72;;
30553;SDS011;17335;50.720;7.452;2023-04-19T11:37:34;4.78;;;2.20;;
30553;SDS011;17335;50.720;7.452;2023-04-19T11:40:02;6.88;;;2.03;;
30553;SDS011;17335;50.720;7.452;2023-04-19T11:42:30;5.43;;;2.45;;
30553;SDS011;17335;50.720;7.452;2023-04-19T11:44:58;5.35;;;2.60;;
30553;SDS011;17335;50.720;7.452;2023-04-19T11:47:25;6.35;;;3.20;;
30553;SDS011;17335;50.720;7.452;2023-04-19T11:49:55;5.20;;;2.22;;
30553;SDS011;17335;50.720;7.452;2023-04-19T11:52:23;4.10;;;2.15;;
30553;SDS011;17335;50.720;7.452;2023-04-19T11:54:53;3.83;;;2.17;;
30553;SDS011;17335;50.720;7.452;2023-04-19T11:57:30;5.15;;;2.97;;
30553;SDS011;17335;50.720;7.452;2023-04-19T12:00:06;6.47;;;2.10;;
30553;SDS011;17335;50.720;7.452;2023-04-19T12:02:38;6.10;;;2.95;;
30553;SDS011;17335;50.720;7.452;2023-04-19T12:05:15;7.20;;;3.05;;
30553;SDS011;17335;50.720;7.452;2023-04-19T12:10:32;5.13;;;2.50;;
30553;SDS011;17335;50.720;7.452;2023-04-19T12:12:59;6.88;;;2.75;;
30553;SDS011;17335;50.720;7.452;2023-04-19T12:15:41;7.55;;;2.15;;
30553;SDS011;17335;50.720;7.452;2023-04-19T12:18:09;4.57;;;2.42;;
30553;SDS011;17335;50.720;7.452;2023-04-19T12:20:36;6.10;;;2.08;;
30553;SDS011;17335;50.720;7.452;2023-04-19T12:23:04;4.80;;;2.65;;
30553;SDS011;17335;50.720;7.452;2023-04-19T12:25:33;4.10;;;2.15;;
30553;SDS011;17335;50.720;7.452;2023-04-19T12:28:01;3.78;;;2.05;;
30553;SDS011;17335;50.720;7.452;2023-04-19T12:30:29;4.22;;;1.90;;
30553;SDS011;17335;50.720;7.452;2023-04-19T12:32:57;4.10;;;1.88;;
30553;SDS011;17335;50.720;7.452;2023-04-19T12:35:24;4.35;;;1.70;;
30553;SDS011;17335;50.720;7.452;2023-04-19T12:37:56;4.00;;;1.73;;
30553;SDS011;17335;50.720;7.452;2023-04-19T12:40:24;3.50;;;1.65;;
30553;SDS011;17335;50.720;7.452;2023-04-19T12:42:52;2.58;;;1.55;;
30553;SDS011;17335;50.720;7.452;2023-04-19T12:45:19;4.00;;;1.30;;
30553;SDS011;17335;50.720;7.452;2023-04-19T12:47:46;4.28;;;1.73;;
30553;SDS011;17335;50.720;7.452;2023-04-19T12:50:13;3.58;;;1.25;;
30553;SDS011;17335;50.720;7.452;2023-04-19T12:52:46;2.30;;;1.40;;
30553;SDS011;17335;50.720;7.452;2023-04-19T12:55:14;3.38;;;1.80;;
30553;SDS011;17335;50.720;7.452;2023-04-19T12:57:41;8.73;;;1.58;;
30553;SDS011;17335;50.720;7.452;2023-04-19T13:00:08;3.22;;;1.13;;
30553;SDS011;17335;50.720;7.452;2023-04-19T13:02:36;3.28;;;1.30;;
30553;SDS011;17335;50.720;7.452;2023-04-19T13:05:03;3.00;;;1.35;;
30553;SDS011;17335;50.720;7.452;2023-04-19T13:07:30;3.45;;;1.40;;
30553;SDS011;17335;50.720;7.452;2023-04-19T13:09:58;4.03;;;1.73;;
30553;SDS011;17335;50.720;7.452;2023-04-19T13:12:24;3.33;;;1.45;;
30553;SDS011;17335;50.720;7.452;2023-04-19T13:14:51;5.05;;;1.70;;
30553;SDS011;17335;50.720;7.452;2023-04-19T13:17:18;4.10;;;1.40;;
30553;SDS011;17335;50.720;7.452;2023-04-19T13:19:45;3.05;;;1.50;;
30553;SDS011;17335;50.720;7.452;2023-04-19T13:22:12;3.38;;;1.52;;
30553;SDS011;17335;50.720;7.452;2023-04-19T13:24:39;2.67;;;1.40;;
30553;SDS011;17335;50.720;7.452;2023-04-19T13:27:06;5.53;;;1.58;;
30553;SDS011;17335;50.720;7.452;2023-04-19T13:29:34;3.15;;;1.20;;
30553;SDS011;17335;50.720;7.452;2023-04-19T13:32:01;3.72;;;1.60;;
30553;SDS011;17335;50.720;7.452;2023-04-19T13:34:27;7.32;;;1.20;;
30553;SDS011;17335;50.720;7.452;2023-04-19T13:36:54;3.75;;;1.50;;
30553;SDS011;17335;50.720;7.452;2023-04-19T13:39:22;3.15;;;1.50;;
30553;SDS011;17335;50.720;7.452;2023-04-19T13:41:49;3.22;;;1.58;;
30553;SDS011;17335;50.720;7.452;2023-04-19T13:44:17;6.72;;;1.45;;
30553;SDS011;17335;50.720;7.452;2023-04-19T13:46:43;3.35;;;1.48;;
30553;SDS011;17335;50.720;7.452;2023-04-19T13:49:10;2.42;;;1.35;;
30553;SDS011;17335;50.720;7.452;2023-04-19T13:51:37;2.85;;;1.45;;
30553;SDS011;17335;50.720;7.452;2023-04-19T13:54:15;3.45;;;1.30;;
30553;SDS011;17335;50.720;7.452;2023-04-19T13:56:46;3.83;;;1.65;;
30553;SDS011;17335;50.720;7.452;2023-04-19T13:59:17;2.88;;;1.50;;
30553;SDS011;17335;50.720;7.452;2023-04-19T14:01:43;3.45;;;1.42;;
30553;SDS011;17335;50.720;7.452;2023-04-19T14:04:10;3.38;;;1.70;;
30553;SDS011;17335;50.720;7.452;2023-04-19T14:06:37;5.13;;;1.60;;
30553;SDS011;17335;50.720;7.452;2023-04-19T14:09:04;3.78;;;1.50;;
30553;SDS011;17335;50.720;7.452;2023-04-19T14:11:30;3.38;;;1.65;;
30553;SDS011;17335;50.720;7.452;2023-04-19T14:13:57;2.55;;;1.50;;
30553;SDS011;17335;50.720;7.452;2023-04-19T14:16:25;2.20;;;1.42;;
30553;SDS011;17335;50.720;7.452;2023-04-19T14:18:52;3.88;;;1.50;;
30553;SDS011;17335;50.720;7.452;2023-04-19T14:21:19;5.40;;;1.65;;
30553;SDS011;17335;50.720;7.452;2023-04-19T14:23:45;6.00;;;2.08;;
30553;SDS011;17335;50.720;7.452;2023-04-19T14:26:13;4.15;;;1.77;;
30553;SDS011;17335;50.720;7.452;2023-04-19T14:28:40;3.33;;;1.98;;
30553;SDS011;17335;50.720;7.452;2023-04-19T14:31:07;4.07;;;1.67;;
30553;SDS011;17335;50.720;7.452;2023-04-19T14:33:33;5.38;;;2.13;;
30553;SDS011;17335;50.720;7.452;2023-04-19T14:36:00;4.53;;;1.90;;
30553;SDS011;17335;50.720;7.452;2023-04-19T14:38:27;4.07;;;1.77;;
30553;SDS011;17335;50.720;7.452;2023-04-19T14:40:53;5.10;;;1.92;;
30553;SDS011;17335;50.720;7.452;2023-04-19T14:43:20;5.88;;;2.20;;
30553;SDS011;17335;50.720;7.452;2023-04-19T14:45:48;6.15;;;2.55;;
30553;SDS011;17335;50.720;7.452;2023-04-19T14:48:15;7.50;;;2.25;;
30553;SDS011;17335;50.720;7.452;2023-04-19T14:50:41;8.00;;;2.30;;
30553;SDS011;17335;50.720;7.452;2023-04-19T14:53:08;4.22;;;2.05;;
30553;SDS011;17335;50.720;7.452;2023-04-19T14:55:38;5.55;;;2.63;;
30553;SDS011;17335;50.720;7.452;2023-04-19T14:58:05;5.35;;;2.80;;
30553;SDS011;17335;50.720;7.452;2023-04-19T15:00:31;6.55;;;2.78;;
30553;SDS011;17335;50.720;7.452;2023-04-19T15:02:58;6.60;;;2.40;;
30553;SDS011;17335;50.720;7.452;2023-04-19T15:05:25;4.78;;;2.38;;
30553;SDS011;17335;50.720;7.452;2023-04-19T15:07:55;7.13;;;2.33;;
30553;SDS011;17335;50.720;7.452;2023-04-19T15:10:21;7.10;;;2.38;;